createdAt,value
2022-12-03T00:00:14.015Z,2.25708
2022-12-03T00:01:21.679Z,2.247009
2022-12-03T00:02:30.563Z,2.216797
2022-12-03T00:03:40.278Z,2.247009
2022-12-03T00:04:47.818Z,2.247009
2022-12-03T00:05:57.483Z,2.216797
2022-12-03T00:07:06.144Z,2.196655
2022-12-03T00:08:13.987Z,2.166443
2022-12-03T00:09:23.955Z,2.146301
2022-12-03T00:10:32.770Z,2.166443
2022-12-03T00:11:41.451Z,2.146301
2022-12-03T00:12:51.109Z,2.146301
2022-12-03T00:13:59.764Z,2.146301
2022-12-03T00:15:09.446Z,2.13623
2022-12-03T00:16:18.184Z,2.146301
2022-12-03T00:17:26.812Z,2.166443
2022-12-03T00:18:37.495Z,2.13623
2022-12-03T00:19:45.157Z,2.146301
2022-12-03T00:20:54.920Z,2.13623
2022-12-03T00:22:04.595Z,2.146301
2022-12-03T00:23:13.258Z,2.166443
2022-12-03T00:24:22.907Z,2.166443
2022-12-03T00:25:31.578Z,2.146301
2022-12-03T00:26:40.287Z,2.146301
2022-12-03T00:27:49.943Z,2.13623
2022-12-03T00:28:58.623Z,2.13623
2022-12-03T00:30:07.269Z,2.12616
2022-12-03T00:31:16.993Z,2.13623
2022-12-03T00:32:24.615Z,2.12616
2022-12-03T00:33:34.302Z,2.055664
2022-12-03T00:34:42.951Z,1.924744
2022-12-03T00:35:51.601Z,1.894531
2022-12-03T00:37:01.299Z,1.88446
2022-12-03T00:38:08.970Z,1.88446
2022-12-03T00:39:18.661Z,1.88446
2022-12-03T00:40:28.331Z,1.854248
2022-12-03T00:41:37.987Z,1.88446
2022-12-03T00:42:47.723Z,1.88446
2022-12-03T00:43:56.375Z,1.894531
2022-12-03T00:45:06.046Z,1.924744
2022-12-03T00:46:18.237Z,1.894531
2022-12-03T00:47:23.329Z,1.914673
2022-12-03T00:48:32.986Z,1.88446
2022-12-03T00:49:40.674Z,1.88446
2022-12-03T00:50:49.326Z,1.844177
2022-12-03T00:51:57.994Z,1.844177
2022-12-03T00:53:05.650Z,1.803894
2022-12-03T00:54:15.303Z,1.803894
2022-12-03T00:55:25.004Z,1.844177
2022-12-03T00:56:34.683Z,1.844177
2022-12-03T00:57:44.352Z,1.844177
2022-12-03T00:58:53.046Z,1.844177
2022-12-03T01:00:01.688Z,1.844177
2022-12-03T01:01:11.370Z,1.783752
2022-12-03T01:02:19.089Z,1.763611
2022-12-03T01:03:28.687Z,1.773682
2022-12-03T01:04:37.475Z,1.763611
2022-12-03T01:05:47.031Z,1.763611
2022-12-03T01:06:56.714Z,1.763611
2022-12-03T01:08:04.469Z,1.763611
2022-12-03T01:09:13.084Z,1.763611
2022-12-03T01:10:22.794Z,1.803894
2022-12-03T01:11:30.480Z,1.773682
2022-12-03T01:12:40.231Z,1.763611
2022-12-03T01:13:48.884Z,1.733398
2022-12-03T01:14:57.579Z,1.703186
2022-12-03T01:16:07.317Z,1.63269
2022-12-03T01:17:15.918Z,1.602478
2022-12-03T01:18:24.587Z,1.582336
2022-12-03T01:19:34.304Z,1.582336
2022-12-03T01:20:42.904Z,1.602478
2022-12-03T01:21:52.588Z,1.602478
2022-12-03T01:23:02.241Z,1.62262
2022-12-03T01:24:10.947Z,1.63269
2022-12-03T01:25:20.628Z,1.63269
2022-12-03T01:26:29.284Z,1.662903
2022-12-03T01:27:37.928Z,1.662903
2022-12-03T01:28:47.704Z,1.662903
2022-12-03T01:29:55.353Z,1.662903
2022-12-03T01:31:05.107Z,1.662903
2022-12-03T01:32:14.704Z,1.662903
2022-12-03T01:33:22.354Z,1.672974
2022-12-03T01:34:32.018Z,1.672974
2022-12-03T01:35:40.762Z,1.672974
2022-12-03T01:36:50.444Z,1.63269
2022-12-03T01:38:00.143Z,1.62262
2022-12-03T01:39:07.792Z,1.62262
2022-12-03T01:40:17.474Z,1.562195
2022-12-03T01:41:27.187Z,1.562195
2022-12-03T01:42:34.842Z,1.552124
2022-12-03T01:43:44.513Z,1.481628
2022-12-03T01:44:52.453Z,1.411133
2022-12-03T01:46:01.849Z,1.38092
2022-12-03T01:47:11.574Z,1.320496
2022-12-03T01:48:20.272Z,1.229858
2022-12-03T01:49:29.883Z,1.199646
2022-12-03T01:50:38.537Z,1.139221
2022-12-03T01:51:46.188Z,1.098938
2022-12-03T01:52:55.886Z,1.098938
2022-12-03T01:54:04.548Z,1.12915
2022-12-03T01:55:13.261Z,1.12915
2022-12-03T01:56:21.921Z,1.159363
2022-12-03T01:57:29.648Z,1.189575
2022-12-03T01:58:39.431Z,1.199646
2022-12-03T01:59:48.086Z,1.239929
2022-12-03T02:00:56.816Z,1.300354
2022-12-03T02:02:06.541Z,1.300354
2022-12-03T02:03:15.181Z,1.300354
2022-12-03T02:04:23.944Z,1.300354
2022-12-03T02:05:33.710Z,1.300354
2022-12-03T02:06:42.368Z,1.320496
2022-12-03T02:07:52.167Z,1.340637
2022-12-03T02:09:00.788Z,1.350708
2022-12-03T02:10:09.478Z,1.320496
2022-12-03T02:11:19.144Z,1.310425
2022-12-03T02:12:26.801Z,1.320496
2022-12-03T02:13:35.517Z,1.280212
2022-12-03T02:14:45.174Z,1.229858
2022-12-03T02:15:53.998Z,1.189575
2022-12-03T02:17:03.609Z,1.169434
2022-12-03T02:18:12.234Z,1.169434
2022-12-03T02:19:20.973Z,1.219788
2022-12-03T02:20:30.639Z,1.199646
2022-12-03T02:21:38.319Z,1.219788
2022-12-03T02:22:47.991Z,1.239929
2022-12-03T02:23:57.708Z,1.189575
2022-12-03T02:25:05.343Z,1.159363
2022-12-03T02:26:14.987Z,1.139221
2022-12-03T02:27:23.707Z,1.159363
2022-12-03T02:28:31.390Z,1.169434
2022-12-03T02:29:41.070Z,1.169434
2022-12-03T02:30:48.764Z,1.169434
2022-12-03T02:31:57.467Z,1.189575
2022-12-03T02:33:07.097Z,1.229858
2022-12-03T02:34:15.790Z,1.239929
2022-12-03T02:35:25.462Z,1.260071
2022-12-03T02:36:35.145Z,1.260071
2022-12-03T02:37:42.828Z,1.280212
2022-12-03T02:38:50.583Z,1.280212
2022-12-03T02:39:58.236Z,1.280212
2022-12-03T02:41:07.889Z,1.280212
2022-12-03T02:42:15.580Z,1.320496
2022-12-03T02:43:24.257Z,1.310425
2022-12-03T02:44:33.926Z,1.310425
2022-12-03T02:45:41.588Z,1.300354
2022-12-03T02:46:51.348Z,1.300354
2022-12-03T02:47:59.999Z,1.280212
2022-12-03T02:49:10.642Z,1.310425
2022-12-03T02:50:19.309Z,1.320496
2022-12-03T02:51:28.009Z,1.340637
2022-12-03T02:52:36.681Z,1.320496
2022-12-03T02:53:46.345Z,1.340637
2022-12-03T02:54:55.367Z,1.37085
2022-12-03T02:56:04.688Z,1.37085
2022-12-03T02:57:13.344Z,1.340637
2022-12-03T02:58:20.995Z,1.340637
2022-12-03T02:59:30.659Z,1.310425
2022-12-03T03:00:39.345Z,1.320496
2022-12-03T03:01:48.024Z,1.350708
2022-12-03T03:02:57.719Z,1.350708
2022-12-03T03:04:06.362Z,1.310425
2022-12-03T03:05:16.034Z,1.310425
2022-12-03T03:06:25.699Z,1.310425
2022-12-03T03:07:33.436Z,1.350708
2022-12-03T03:08:43.073Z,1.37085
2022-12-03T03:09:50.811Z,1.340637
2022-12-03T03:11:00.475Z,1.300354
2022-12-03T03:12:10.165Z,1.280212
2022-12-03T03:13:17.843Z,1.260071
2022-12-03T03:14:26.502Z,1.260071
2022-12-03T03:15:36.197Z,1.260071
2022-12-03T03:16:44.942Z,1.300354
2022-12-03T03:17:54.573Z,1.320496
2022-12-03T03:19:03.254Z,1.340637
2022-12-03T03:20:11.895Z,1.340637
2022-12-03T03:21:20.670Z,1.350708
2022-12-03T03:22:28.290Z,1.37085
2022-12-03T03:23:38.078Z,1.38092
2022-12-03T03:24:47.756Z,1.37085
2022-12-03T03:25:55.414Z,1.401062
2022-12-03T03:27:05.123Z,1.401062
2022-12-03T03:28:14.774Z,1.411133
2022-12-03T03:29:24.476Z,1.411133
2022-12-03T03:30:34.245Z,1.441345
2022-12-03T03:31:43.949Z,1.441345
2022-12-03T03:32:53.576Z,1.451416
2022-12-03T03:34:02.246Z,1.441345
2022-12-03T03:35:09.950Z,1.421204
2022-12-03T03:36:19.657Z,1.411133
2022-12-03T03:37:27.307Z,1.38092
2022-12-03T03:38:36.980Z,1.350708
2022-12-03T03:39:46.654Z,1.350708
2022-12-03T03:40:56.291Z,1.320496
2022-12-03T03:42:05.969Z,1.310425
2022-12-03T03:43:14.697Z,1.300354
2022-12-03T03:44:23.349Z,1.310425
2022-12-03T03:45:33.048Z,1.310425
2022-12-03T03:46:40.676Z,1.300354
2022-12-03T03:47:49.344Z,1.300354
2022-12-03T03:48:59.040Z,1.260071
2022-12-03T03:50:06.696Z,1.280212
2022-12-03T03:51:16.356Z,1.280212
2022-12-03T03:52:25.015Z,1.260071
2022-12-03T03:53:34.701Z,1.239929
2022-12-03T03:54:44.422Z,1.239929
2022-12-03T03:55:53.114Z,1.219788
2022-12-03T03:57:02.745Z,1.229858
2022-12-03T03:58:13.394Z,1.239929
2022-12-03T03:59:22.089Z,1.229858
2022-12-03T04:00:31.842Z,1.159363
2022-12-03T04:01:40.549Z,1.12915
2022-12-03T04:02:48.150Z,1.078796
2022-12-03T04:03:57.862Z,1.048584
2022-12-03T04:05:06.497Z,1.048584
2022-12-03T04:06:16.150Z,1.048584
2022-12-03T04:07:25.848Z,1.038513
2022-12-03T04:08:34.466Z,1.048584
2022-12-03T04:09:44.141Z,1.078796
2022-12-03T04:10:52.846Z,1.098938
2022-12-03T04:12:02.558Z,1.11908
2022-12-03T04:13:12.225Z,1.098938
2022-12-03T04:14:21.887Z,1.078796
2022-12-03T04:15:31.543Z,1.058655
2022-12-03T04:16:41.253Z,1.048584
2022-12-03T04:17:49.919Z,1.038513
2022-12-03T04:18:59.613Z,1.018372
2022-12-03T04:20:08.319Z,0.988159
2022-12-03T04:21:15.964Z,0.978088
2022-12-03T04:22:25.661Z,0.988159
2022-12-03T04:23:33.307Z,1.008301
2022-12-03T04:24:42.960Z,0.988159
2022-12-03T04:25:52.695Z,1.008301
2022-12-03T04:27:00.340Z,0.937805
2022-12-03T04:28:10.076Z,0.947876
2022-12-03T04:29:19.781Z,0.947876
2022-12-03T04:30:28.520Z,0.957947
2022-12-03T04:31:38.107Z,0.978088
2022-12-03T04:32:47.787Z,0.978088
2022-12-03T04:33:57.461Z,0.978088
2022-12-03T04:35:07.170Z,0.978088
2022-12-03T04:36:15.780Z,0.957947
2022-12-03T04:37:25.525Z,0.957947
2022-12-03T04:38:33.181Z,0.947876
2022-12-03T04:39:42.864Z,0.978088
2022-12-03T04:40:51.533Z,0.988159
2022-12-03T04:42:00.205Z,1.008301
2022-12-03T04:43:09.974Z,1.008301
2022-12-03T04:44:18.683Z,1.018372
2022-12-03T04:45:27.339Z,1.018372
2022-12-03T04:46:37.014Z,1.048584
2022-12-03T04:47:46.791Z,1.018372
2022-12-03T04:48:56.472Z,1.038513
2022-12-03T04:50:06.144Z,1.038513
2022-12-03T04:51:13.807Z,1.038513
2022-12-03T04:52:23.473Z,1.018372
2022-12-03T04:53:32.144Z,1.018372
2022-12-03T04:54:42.791Z,1.048584
2022-12-03T04:55:52.484Z,1.078796
2022-12-03T04:57:01.233Z,1.078796
2022-12-03T04:58:10.902Z,1.078796
2022-12-03T04:59:19.597Z,1.048584
2022-12-03T05:00:27.386Z,1.048584
2022-12-03T05:01:37.131Z,1.058655
2022-12-03T05:02:44.781Z,1.078796
2022-12-03T05:03:54.442Z,1.048584
2022-12-03T05:05:04.143Z,1.078796
2022-12-03T05:06:12.788Z,1.098938
2022-12-03T05:07:22.524Z,1.098938
2022-12-03T05:08:32.236Z,1.11908
2022-12-03T05:09:40.960Z,1.098938
2022-12-03T05:10:50.670Z,1.098938
2022-12-03T05:11:59.335Z,1.078796
2022-12-03T05:13:09.102Z,1.078796
2022-12-03T05:14:18.805Z,1.098938
2022-12-03T05:15:27.603Z,1.098938
2022-12-03T05:16:37.365Z,1.098938
2022-12-03T05:17:46.928Z,1.12915
2022-12-03T05:18:55.641Z,1.11908
2022-12-03T05:20:05.321Z,1.11908
2022-12-03T05:21:14.964Z,1.098938
2022-12-03T05:22:23.628Z,1.11908
2022-12-03T05:23:33.299Z,1.078796
2022-12-03T05:24:41.981Z,1.11908
2022-12-03T05:25:51.667Z,1.12915
2022-12-03T05:27:00.318Z,1.098938
2022-12-03T05:28:09.012Z,1.078796
2022-12-03T05:29:18.682Z,1.058655
2022-12-03T05:30:28.451Z,1.078796
2022-12-03T05:31:38.102Z,1.098938
2022-12-03T05:32:47.824Z,1.078796
2022-12-03T05:33:57.497Z,1.078796
2022-12-03T05:35:07.151Z,1.078796
2022-12-03T05:36:15.821Z,1.11908
2022-12-03T05:37:24.494Z,1.098938
2022-12-03T05:38:34.156Z,1.11908
2022-12-03T05:39:41.818Z,1.11908
2022-12-03T05:40:50.468Z,1.139221
2022-12-03T05:42:00.143Z,1.169434
2022-12-03T05:43:07.821Z,1.169434
2022-12-03T05:44:20.569Z,1.169434
2022-12-03T05:45:27.240Z,1.189575
2022-12-03T05:46:35.962Z,1.199646
2022-12-03T05:47:45.708Z,1.189575
2022-12-03T05:48:54.442Z,1.199646
2022-12-03T05:50:03.143Z,1.199646
2022-12-03T05:51:12.805Z,1.199646
2022-12-03T05:52:22.486Z,1.219788
2022-12-03T05:53:32.139Z,1.219788
2022-12-03T05:54:41.979Z,1.219788
2022-12-03T05:55:49.692Z,1.229858
2022-12-03T05:56:59.373Z,1.199646
2022-12-03T05:58:07.030Z,1.189575
2022-12-03T05:59:15.686Z,1.159363
2022-12-03T06:00:25.359Z,1.139221
2022-12-03T06:01:35.052Z,1.11908
2022-12-03T06:02:44.811Z,1.098938
2022-12-03T06:03:53.511Z,1.11908
2022-12-03T06:05:01.115Z,1.11908
2022-12-03T06:06:10.808Z,1.098938
2022-12-03T06:07:19.441Z,1.078796
2022-12-03T06:08:29.103Z,1.098938
2022-12-03T06:09:38.783Z,1.12915
2022-12-03T06:10:46.444Z,1.139221
2022-12-03T06:11:56.142Z,1.189575
2022-12-03T06:13:05.799Z,1.189575
2022-12-03T06:14:13.539Z,1.199646
2022-12-03T06:15:23.219Z,1.199646
2022-12-03T06:16:30.979Z,1.239929
2022-12-03T06:17:39.644Z,1.310425
2022-12-03T06:18:49.328Z,1.320496
2022-12-03T06:19:56.995Z,1.310425
2022-12-03T06:21:06.687Z,1.300354
2022-12-03T06:22:16.321Z,1.310425
2022-12-03T06:23:24.998Z,1.300354
2022-12-03T06:24:34.692Z,1.300354
2022-12-03T06:25:43.410Z,1.280212
2022-12-03T06:26:53.075Z,1.280212
2022-12-03T06:28:02.763Z,1.320496
2022-12-03T06:29:11.418Z,1.310425
2022-12-03T06:30:21.115Z,1.310425
2022-12-03T06:31:29.977Z,1.310425
2022-12-03T06:32:39.524Z,1.320496
2022-12-03T06:33:49.242Z,1.320496
2022-12-03T06:34:56.969Z,1.310425
2022-12-03T06:36:05.671Z,1.300354
2022-12-03T06:37:14.393Z,1.310425
2022-12-03T06:38:24.026Z,1.280212
2022-12-03T06:39:33.684Z,1.300354
2022-12-03T06:40:43.358Z,1.300354
2022-12-03T06:41:53.006Z,1.300354
2022-12-03T06:43:01.677Z,1.260071
2022-12-03T06:44:09.334Z,1.239929
2022-12-03T06:45:19.007Z,1.229858
2022-12-03T06:46:27.769Z,1.219788
2022-12-03T06:47:36.372Z,1.219788
2022-12-03T06:48:46.067Z,1.229858
2022-12-03T06:49:54.748Z,1.229858
2022-12-03T06:51:04.399Z,1.229858
2022-12-03T06:52:13.124Z,1.239929
2022-12-03T06:53:20.804Z,1.280212
2022-12-03T06:54:30.456Z,1.300354
2022-12-03T06:55:38.145Z,1.280212
2022-12-03T06:56:46.854Z,1.300354
2022-12-03T06:57:56.575Z,1.300354
2022-12-03T06:59:05.240Z,1.280212
2022-12-03T07:00:14.913Z,1.280212
2022-12-03T07:01:23.726Z,1.300354
2022-12-03T07:02:33.447Z,1.300354
2022-12-03T07:03:43.121Z,1.310425
2022-12-03T07:04:51.772Z,1.340637
2022-12-03T07:05:59.546Z,1.320496
2022-12-03T07:07:09.265Z,1.340637
2022-12-03T07:08:18.009Z,1.340637
2022-12-03T07:09:27.706Z,1.320496
2022-12-03T07:10:37.377Z,1.350708
2022-12-03T07:11:46.048Z,1.350708
2022-12-03T07:12:55.731Z,1.340637
2022-12-03T07:14:05.688Z,1.350708
2022-12-03T07:15:13.223Z,1.320496
2022-12-03T07:16:22.008Z,1.300354
2022-12-03T07:17:29.576Z,1.300354
2022-12-03T07:18:39.250Z,1.300354
2022-12-03T07:19:47.969Z,1.300354
2022-12-03T07:20:56.866Z,1.310425
2022-12-03T07:22:06.723Z,1.310425
2022-12-03T07:23:14.398Z,1.280212
2022-12-03T07:24:24.061Z,1.280212
2022-12-03T07:25:33.796Z,1.300354
2022-12-03T07:26:43.472Z,1.320496
2022-12-03T07:27:53.199Z,1.340637
2022-12-03T07:29:01.894Z,1.340637
2022-12-03T07:30:09.541Z,1.310425
2022-12-03T07:31:19.313Z,1.280212
2022-12-03T07:32:27.938Z,1.300354
2022-12-03T07:33:37.641Z,1.260071
2022-12-03T07:34:47.312Z,1.239929
2022-12-03T07:35:55.955Z,1.239929
2022-12-03T07:37:04.687Z,1.300354
2022-12-03T07:38:14.396Z,1.310425
2022-12-03T07:39:22.045Z,1.340637
2022-12-03T07:40:31.728Z,1.320496
2022-12-03T07:41:39.431Z,1.310425
2022-12-03T07:42:48.143Z,1.280212
2022-12-03T07:43:57.843Z,1.280212
2022-12-03T07:45:07.541Z,1.260071
2022-12-03T07:46:17.288Z,1.280212
2022-12-03T07:47:27.044Z,1.260071
2022-12-03T07:48:36.740Z,1.260071
2022-12-03T07:49:46.635Z,1.159363
2022-12-03T07:50:54.305Z,1.139221
2022-12-03T07:52:04.009Z,1.139221
2022-12-03T07:53:13.710Z,1.169434
2022-12-03T07:54:24.486Z,1.199646
2022-12-03T07:55:34.206Z,1.229858
2022-12-03T07:56:42.906Z,1.239929
2022-12-03T07:57:53.712Z,1.280212
2022-12-03T07:59:03.434Z,1.280212
2022-12-03T08:00:13.119Z,1.280212
2022-12-03T08:01:22.909Z,1.260071
2022-12-03T08:02:32.604Z,1.260071
2022-12-03T08:03:40.782Z,1.260071
2022-12-03T08:04:56.604Z,1.310425
2022-12-03T08:06:05.108Z,1.320496
2022-12-03T08:07:13.821Z,1.340637
2022-12-03T08:08:23.546Z,1.350708
2022-12-03T08:09:31.275Z,1.350708
2022-12-03T08:10:39.941Z,1.320496
2022-12-03T08:11:49.706Z,1.310425
2022-12-03T08:12:58.554Z,1.280212
2022-12-03T08:14:08.298Z,1.300354
2022-12-03T08:15:16.972Z,1.310425
2022-12-03T08:16:25.676Z,1.340637
2022-12-03T08:17:34.435Z,1.37085
2022-12-03T08:18:43.295Z,1.411133
2022-12-03T08:19:51.999Z,1.411133
2022-12-03T08:21:01.693Z,1.441345
2022-12-03T08:22:10.407Z,1.411133
2022-12-03T08:23:20.265Z,1.421204
2022-12-03T08:24:29.988Z,1.411133
2022-12-03T08:25:38.880Z,1.441345
2022-12-03T08:26:48.673Z,1.451416
2022-12-03T08:27:56.429Z,1.491699
2022-12-03T08:29:05.195Z,1.521912
2022-12-03T08:30:14.927Z,1.531982
2022-12-03T08:31:26.808Z,1.562195
2022-12-03T08:32:34.461Z,1.562195
2022-12-03T08:33:42.096Z,1.552124
2022-12-03T08:34:52.178Z,1.521912
2022-12-03T08:36:00.581Z,1.481628
2022-12-03T08:37:08.259Z,1.451416
2022-12-03T08:38:17.958Z,1.441345
2022-12-03T08:39:28.627Z,1.451416
2022-12-03T08:40:37.298Z,1.441345
2022-12-03T08:41:47.030Z,1.481628
2022-12-03T08:42:55.736Z,1.411133
2022-12-03T08:44:05.423Z,1.37085
2022-12-03T08:45:15.147Z,1.350708
2022-12-03T08:46:23.851Z,1.38092
2022-12-03T08:47:32.544Z,1.401062
2022-12-03T08:48:45.523Z,1.401062
2022-12-03T08:49:50.965Z,1.451416
2022-12-03T08:51:00.756Z,1.491699
2022-12-03T08:52:08.499Z,1.521912
2022-12-03T08:53:18.224Z,1.50177
2022-12-03T08:54:26.974Z,1.50177
2022-12-03T08:55:35.693Z,1.50177
2022-12-03T08:56:45.361Z,1.521912
2022-12-03T08:57:53.048Z,1.521912
2022-12-03T08:59:01.811Z,1.491699
2022-12-03T09:00:11.518Z,1.481628
2022-12-03T09:01:20.508Z,1.50177
2022-12-03T09:02:30.218Z,1.521912
2022-12-03T09:03:38.946Z,1.521912
2022-12-03T09:04:47.659Z,1.552124
2022-12-03T09:05:57.370Z,1.552124
2022-12-03T09:07:07.091Z,1.592407
2022-12-03T09:08:16.851Z,1.592407
2022-12-03T09:09:26.500Z,1.63269
2022-12-03T09:10:35.191Z,1.63269
2022-12-03T09:11:44.949Z,1.63269
2022-12-03T09:12:54.657Z,1.62262
2022-12-03T09:14:03.430Z,1.662903
2022-12-03T09:15:14.193Z,1.662903
2022-12-03T09:16:23.983Z,1.713257
2022-12-03T09:17:32.629Z,1.703186
2022-12-03T09:18:42.435Z,1.683044
2022-12-03T09:19:51.352Z,1.63269
2022-12-03T09:21:01.259Z,1.50177
2022-12-03T09:22:10.255Z,1.421204
2022-12-03T09:23:18.039Z,1.451416
2022-12-03T09:24:27.731Z,1.451416
2022-12-03T09:25:36.418Z,1.421204
2022-12-03T09:26:45.096Z,1.421204
2022-12-03T09:27:54.797Z,1.411133
2022-12-03T09:29:06.391Z,1.481628
2022-12-03T09:30:13.091Z,1.562195
2022-12-03T09:31:21.823Z,1.592407
2022-12-03T09:32:31.567Z,1.592407
2022-12-03T09:33:41.163Z,1.592407
2022-12-03T09:34:49.825Z,1.602478
2022-12-03T09:35:58.517Z,1.602478
2022-12-03T09:37:08.192Z,1.582336
2022-12-03T09:38:15.926Z,1.562195
2022-12-03T09:39:25.632Z,1.562195
2022-12-03T09:40:35.306Z,1.582336
2022-12-03T09:41:44.004Z,1.552124
2022-12-03T09:42:53.684Z,1.552124
2022-12-03T09:44:04.269Z,1.582336
2022-12-03T09:45:12.052Z,1.582336
2022-12-03T09:46:21.769Z,1.592407
2022-12-03T09:47:29.424Z,1.592407
2022-12-03T09:48:40.074Z,1.582336
2022-12-03T09:49:48.770Z,1.582336
2022-12-03T09:50:56.467Z,1.50177
2022-12-03T09:52:05.158Z,1.421204
2022-12-03T09:53:12.861Z,1.38092
2022-12-03T09:54:22.602Z,1.37085
2022-12-03T09:55:32.401Z,1.421204
2022-12-03T09:56:40.056Z,1.451416
2022-12-03T09:57:49.739Z,1.481628
2022-12-03T09:58:58.442Z,1.481628
2022-12-03T10:00:06.138Z,1.481628
2022-12-03T10:01:15.836Z,1.491699
2022-12-03T10:02:25.519Z,1.531982
2022-12-03T10:03:35.217Z,1.582336
2022-12-03T10:04:44.945Z,1.63269
2022-12-03T10:05:52.582Z,1.672974
2022-12-03T10:07:02.256Z,1.703186
2022-12-03T10:08:10.995Z,1.703186
2022-12-03T10:09:18.649Z,1.703186
2022-12-03T10:10:28.353Z,1.683044
2022-12-03T10:11:36.022Z,1.672974
2022-12-03T10:12:45.694Z,1.672974
2022-12-03T10:13:55.398Z,1.683044
2022-12-03T10:15:04.059Z,1.662903
2022-12-03T10:16:13.818Z,1.63269
2022-12-03T10:17:22.416Z,1.672974
2022-12-03T10:18:30.898Z,1.662903
2022-12-03T10:19:40.792Z,1.662903
2022-12-03T10:20:50.529Z,1.683044
2022-12-03T10:21:59.209Z,1.683044
2022-12-03T10:23:08.877Z,1.733398
2022-12-03T10:24:17.661Z,1.713257
2022-12-03T10:25:27.385Z,1.713257
2022-12-03T10:26:36.100Z,1.592407
2022-12-03T10:27:43.803Z,1.582336
2022-12-03T10:28:53.487Z,1.62262
2022-12-03T10:29:59.213Z,1.683044
2022-12-03T10:31:08.898Z,1.733398
2022-12-03T10:32:17.569Z,1.763611
2022-12-03T10:33:26.231Z,1.773682
2022-12-03T10:34:35.938Z,1.713257
2022-12-03T10:35:44.634Z,1.703186
2022-12-03T10:36:54.368Z,1.63269
2022-12-03T10:38:03.046Z,1.63269
2022-12-03T10:39:12.791Z,1.662903
2022-12-03T10:40:22.483Z,1.683044
2022-12-03T10:41:31.332Z,1.703186
2022-12-03T10:42:40.016Z,1.713257
2022-12-03T10:43:49.809Z,1.743469
2022-12-03T10:44:57.456Z,1.773682
2022-12-03T10:46:07.227Z,1.713257
2022-12-03T10:47:15.954Z,1.672974
2022-12-03T10:48:24.571Z,1.662903
2022-12-03T10:49:34.257Z,1.672974
2022-12-03T10:50:43.962Z,1.703186
2022-12-03T10:51:52.680Z,1.743469
2022-12-03T10:53:02.338Z,1.813965
2022-12-03T10:54:11.071Z,1.87439
2022-12-03T10:55:20.770Z,1.894531
2022-12-03T10:56:29.453Z,1.914673
2022-12-03T10:57:43.874Z,1.87439
2022-12-03T10:58:48.815Z,1.87439
2022-12-03T10:59:58.602Z,1.87439
2022-12-03T11:01:08.361Z,1.763611
2022-12-03T11:02:18.048Z,1.773682
2022-12-03T11:03:26.818Z,1.703186
2022-12-03T11:04:36.511Z,1.62262
2022-12-03T11:05:45.260Z,1.521912
2022-12-03T11:06:54.008Z,1.521912
2022-12-03T11:08:03.902Z,1.552124
2022-12-03T11:09:13.496Z,1.582336
2022-12-03T11:10:22.197Z,1.552124
2022-12-03T11:11:31.912Z,1.562195
2022-12-03T11:12:40.596Z,1.592407
2022-12-03T11:13:50.275Z,1.63269
2022-12-03T11:14:58.946Z,1.672974
2022-12-03T11:16:07.787Z,1.733398
2022-12-03T11:17:17.397Z,1.733398
2022-12-03T11:18:25.111Z,1.743469
2022-12-03T11:19:33.795Z,1.773682
2022-12-03T11:20:43.485Z,1.813965
2022-12-03T11:21:51.169Z,1.854248
2022-12-03T11:23:00.866Z,1.88446
2022-12-03T11:24:09.608Z,1.854248
2022-12-03T11:25:18.257Z,1.803894
2022-12-03T11:26:27.937Z,1.813965
2022-12-03T11:27:36.601Z,1.854248
2022-12-03T11:28:46.386Z,1.87439
2022-12-03T11:29:56.047Z,1.88446
2022-12-03T11:31:03.775Z,1.894531
2022-12-03T11:32:12.414Z,1.914673
2022-12-03T11:33:21.122Z,1.914673
2022-12-03T11:34:29.878Z,1.924744
2022-12-03T11:35:39.558Z,1.944885
2022-12-03T11:37:01.383Z,1.954956
2022-12-03T11:37:58.896Z,1.954956
2022-12-03T11:39:08.605Z,1.924744
2022-12-03T11:40:16.438Z,1.944885
2022-12-03T11:41:26.013Z,1.924744
2022-12-03T11:42:34.711Z,1.924744
2022-12-03T11:43:43.401Z,1.944885
2022-12-03T11:44:53.087Z,1.965027
2022-12-03T11:46:04.180Z,1.985168
2022-12-03T11:47:09.559Z,1.954956
2022-12-03T11:48:19.225Z,1.944885
2022-12-03T11:49:27.893Z,1.954956
2022-12-03T11:50:40.014Z,1.954956
2022-12-03T11:51:45.223Z,1.965027
2022-12-03T11:52:52.896Z,1.924744
2022-12-03T11:54:01.571Z,1.914673
2022-12-03T11:55:10.249Z,1.894531
2022-12-03T11:56:19.982Z,1.894531
2022-12-03T11:57:29.650Z,1.914673
2022-12-03T11:58:38.401Z,1.954956
2022-12-03T11:59:48.081Z,1.995239
2022-12-03T12:00:56.849Z,2.035522
2022-12-03T12:02:06.516Z,2.095947
2022-12-03T12:03:16.325Z,2.095947
2022-12-03T12:04:23.988Z,2.106018
2022-12-03T12:05:32.630Z,2.095947
2022-12-03T12:06:42.623Z,2.055664
2022-12-03T12:07:53.025Z,2.055664
2022-12-03T12:09:02.749Z,2.095947
2022-12-03T12:10:12.468Z,2.095947
2022-12-03T12:11:21.118Z,2.095947
2022-12-03T12:12:30.865Z,2.065735
2022-12-03T12:13:39.478Z,2.035522
2022-12-03T12:14:48.193Z,2.055664
2022-12-03T12:15:57.893Z,2.065735
2022-12-03T12:17:06.599Z,2.065735
2022-12-03T12:18:16.298Z,2.095947
2022-12-03T12:19:25.000Z,2.095947
2022-12-03T12:20:33.668Z,2.13623
2022-12-03T12:21:43.382Z,2.12616
2022-12-03T12:22:52.049Z,2.13623
2022-12-03T12:24:00.720Z,2.166443
2022-12-03T12:25:10.456Z,2.166443
2022-12-03T12:26:19.174Z,2.176514
2022-12-03T12:27:28.892Z,2.146301
2022-12-03T12:28:36.609Z,2.13623
2022-12-03T12:29:46.283Z,2.13623
2022-12-03T12:30:55.961Z,2.095947
2022-12-03T12:32:03.794Z,2.095947
2022-12-03T12:33:13.378Z,2.106018
2022-12-03T12:34:21.047Z,2.106018
2022-12-03T12:35:29.748Z,2.095947
2022-12-03T12:36:39.478Z,2.106018
2022-12-03T12:37:48.652Z,2.106018
2022-12-03T12:38:57.814Z,2.095947
2022-12-03T12:40:06.477Z,2.065735
2022-12-03T12:41:15.164Z,2.015381
2022-12-03T12:42:24.859Z,1.985168
2022-12-03T12:43:32.578Z,1.995239
2022-12-03T12:44:42.270Z,1.965027
2022-12-03T12:45:51.918Z,1.965027
2022-12-03T12:47:01.609Z,1.965027
2022-12-03T12:48:11.248Z,1.985168
2022-12-03T12:49:19.979Z,1.985168
2022-12-03T12:50:28.653Z,2.055664
2022-12-03T12:51:38.341Z,2.035522
2022-12-03T12:52:48.038Z,2.055664
2022-12-03T12:53:56.726Z,2.035522
2022-12-03T12:55:06.485Z,2.055664
2022-12-03T12:56:15.156Z,2.055664
2022-12-03T12:57:24.859Z,2.055664
2022-12-03T12:58:32.500Z,2.055664
2022-12-03T12:59:41.225Z,2.035522
2022-12-03T13:00:51.041Z,1.985168
2022-12-03T13:01:59.717Z,1.944885
2022-12-03T13:03:10.359Z,1.894531
2022-12-03T13:04:20.108Z,1.87439
2022-12-03T13:05:28.820Z,1.88446
2022-12-03T13:06:38.599Z,1.88446
2022-12-03T13:07:48.344Z,1.854248
2022-12-03T13:08:56.969Z,1.854248
2022-12-03T13:10:06.656Z,1.854248
2022-12-03T13:11:16.336Z,1.813965
2022-12-03T13:12:25.047Z,1.844177
2022-12-03T13:13:38.756Z,1.813965
2022-12-03T13:14:45.442Z,1.763611
2022-12-03T13:15:55.223Z,1.703186
2022-12-03T13:17:04.795Z,1.662903
2022-12-03T13:18:14.532Z,1.672974
2022-12-03T13:19:24.227Z,1.662903
2022-12-03T13:20:32.911Z,1.683044
2022-12-03T13:21:42.666Z,1.733398
2022-12-03T13:22:52.384Z,1.773682
2022-12-03T13:24:01.138Z,1.763611
2022-12-03T13:25:10.841Z,1.803894
2022-12-03T13:26:32.712Z,1.763611
2022-12-03T13:27:31.136Z,1.743469
2022-12-03T13:28:40.852Z,1.733398
2022-12-03T13:29:49.575Z,1.743469
2022-12-03T13:30:59.325Z,1.773682
2022-12-03T13:32:09.059Z,1.813965
2022-12-03T13:33:18.665Z,1.813965